Flight Track Log - Related Links

Times and Time Zones

All times are in EDT time to prevent confusion due to time zone crossing. See the N604MC flight status page for this flight to view local times or setup timezone preferences in your user account.

Time Position Orientation Groundspeed Altitude Reporting Facility
EDT Latitude Longitude Course Direction KTS MPH feet Rate Location/Type
Sun 05:32:30 PM 39.9119 -74.2283 237° Southwest 264 304 6,000  Level Washington Center
Sun 05:33:00 PM 39.5752 -74.5667 180° South  Level FlightAware Approximate
Sun 05:33:28 PM 39.8753 -74.3047 238° Southwest 269 310 6,000  Level Washington Center
Sun 05:34:00 PM 39.4704 -74.5667 180° South  Level FlightAware Approximate
Sun 05:34:28 PM 39.8408 -74.3836 240° Southwest 264 304 6,000  Level Washington Center
Sun 05:35:00 PM 39.3985 -74.6530 237° Southwest  Level FlightAware Approximate
Sun 05:35:29 PM 39.7914 -74.4600 230° Southwest 264 304 6,100  Level Washington Center
Sun 05:36:00 PM 39.3433 -74.7634 237° Southwest  Level FlightAware Approximate
Sun 05:36:28 PM 39.7317 -74.5150 215° Southwest 257 296 7,700  Level Washington Center
Sun 05:37:00 PM 39.2864 -74.8772 237° Southwest  Level FlightAware Approximate
Sun 05:37:28 PM 39.6717 -74.5697 215° Southwest 263 303 8,000  Level Washington Center
Sun 05:38:30 PM 39.6178 -74.6217 217° Southwest 263 303 9,900 2,508 Climbing Washington Center
Sun 05:39:30 PM 39.5517 -74.6819 215° Southwest 270 311 13,100 3,203 Climbing Washington Center
Sun 05:40:28 PM 39.4833 -74.7472 216° Southwest 294 338 16,200 3,153 Climbing Washington Center
Sun 05:41:28 PM 39.4108 -74.8153 216° Southwest 316 364 19,300 2,950 Climbing Washington Center
Sun 05:42:28 PM 39.3406 -74.8831 217° Southwest 316 364 22,100 2,182 Climbing Washington Center
Sun 05:43:29 PM 39.2681 -74.9481 215° Southwest 316 364 23,700 1,736 Climbing Washington Center
Sun 05:44:29 PM 39.1806 -74.9972 204° Southwest 329 379 25,600 1,934 Climbing Washington Center
Sun 05:45:30 PM 39.0914 -75.0542 206° Southwest 341 392 27,600 1,966 Climbing Washington Center
Sun 05:46:28 PM 39.0019 -75.1003 202° Southwest 352 405 29,500 1,765 Climbing Washington Center
Sun 05:47:29 PM 38.9125 -75.1514 204° Southwest 352 405 31,100 1,289 Climbing Washington Center
Sun 05:48:29 PM 38.8231 -75.2053 205° Southwest 357 411 32,100 992 Climbing Washington Center
Sun 05:49:30 PM 38.7314 -75.2644 207° Southwest 357 411 33,100 992 Climbing Washington Center
Sun 05:50:30 PM 38.6378 -75.3233 206° Southwest 364 419 34,100 1,017 Climbing Washington Center
Sun 05:51:28 PM 38.5419 -75.3794 205° Southwest 369 425 35,100 958 Climbing Washington Center
Sun 05:52:29 PM 38.4442 -75.4219 199° South 374 430 36,000 443 Climbing Washington Center
Sun 05:53:30 PM 38.3419 -75.4725 201° Southwest 380 437 36,000  Level Washington Center
Sun 05:54:30 PM 38.2356 -75.5150 197° South 392 451 36,000  Level Washington Center
Sun 05:55:28 PM 38.1294 -75.5628 200° South 397 457 36,000  Level Washington Center
Sun 05:56:28 PM 38.0333 -75.6208 205° Southwest 403 464 36,000  Level Washington Center
Sun 05:57:29 PM 37.9250 -75.6656 198° South 403 464 36,000  Level Washington Center
Sun 05:58:30 PM 37.8206 -75.7128 200° South 403 464 36,000  Level Washington Center
Sun 05:59:28 PM 37.7164 -75.7625 201° Southwest 403 464 36,000  Level Washington Center
Sun 06:00:29 PM 37.6078 -75.8067 198° South 408 470 36,000  Level Washington Center
Sun 06:01:29 PM 37.4992 -75.8561 200° South 408 470 36,000  Level Washington Center
Sun 06:02:30 PM 37.3928 -75.9056 200° South 408 470 36,000  Level Washington Center
Sun 06:03:28 PM 37.2842 -75.9547 200° South 413 475 36,000  Level Washington Center
Sun 06:04:28 PM 37.1733 -76.0036 199° South 413 475 36,000  Level Washington Center
Sun 06:05:29 PM 37.0647 -76.0525 200° South 418 481 36,000  Level Washington Center
Sun 06:06:29 PM 36.9497 -76.1014 199° South 423 487 36,000  Level Washington Center
Sun 06:07:30 PM 36.8392 -76.1472 198° South 428 493 36,000  Level Washington Center
Sun 06:08:30 PM 36.7303 -76.1958 200° South 428 493 36,000  Level Washington Center
Sun 06:09:27 PM 36.6342 -76.2417 201° Southwest 428 493 36,000  Level Washington Center
Sun 06:10:28 PM 36.5211 -76.2925 200° South 428 493 36,000  Level Washington Center
Sun 06:11:29 PM 36.4125 -76.3378 199° South 428 493 36,000  Level Washington Center
Sun 06:12:30 PM 36.3058 -76.3858 200° South 422 486 36,000  Level Washington Center
Sun 06:13:30 PM 36.1969 -76.4336 200° South 422 486 36,000  Level Washington Center
Sun 06:14:29 PM 36.0881 -76.4789 199° South 422 486 36,000  Level Washington Center
Sun 06:15:29 PM 35.9792 -76.5264 199° South 422 486 36,000  Level Washington Center
Sun 06:16:27 PM 35.8703 -76.5711 198° South 422 486 36,000  Level Washington Center
Sun 06:17:28 PM 35.7636 -76.6186 200° South 422 486 36,000  Level Washington Center
Sun 06:18:29 PM 35.6567 -76.6658 200° South 417 480 36,000  Level Washington Center
Sun 06:19:30 PM 35.5500 -76.7103 199° South 417 480 36,000  Level Washington Center
Sun 06:20:27 PM 35.4411 -76.7572 199° South 412 474 36,000  Level Washington Center
Sun 06:21:28 PM 35.3361 -76.8014 199° South 407 468 36,000  Level Washington Center
Sun 06:22:30 PM 35.2314 -76.8458 199° South 407 468 36,000  Level Washington Center
Sun 06:23:30 PM 35.1244 -76.8922 200° South 407 468 36,000  Level Washington Center
Sun 06:24:28 PM 35.0197 -76.9336 198° South 402 463 36,000  Level Washington Center
Sun 06:25:29 PM 34.9189 -76.9853 203° Southwest 402 463 36,000  Level Washington Center
Sun 06:26:29 PM 34.8142 -77.0264 198° South 402 463 36,000 -50 Level Washington Center
Sun 06:27:29 PM 34.7114 -77.0675 198° South 402 463 35,900  Descending Washington Center
Sun 06:28:30 PM 34.6108 -77.1086 199° South 392 451 36,000 50 Climbing Washington Center
Sun 06:29:28 PM 34.5122 -77.1522 200° South 392 451 36,000  Level Washington Center
Sun 06:30:28 PM 34.4114 -77.1931 198° South 392 451 36,000  Level Washington Center
Sun 06:31:29 PM 34.3086 -77.2364 199° South 392 451 36,000  Level Washington Center
Sun 06:32:29 PM 34.2058 -77.2769 198° South 392 451 36,000  Level Washington Center
Sun 06:33:30 PM 34.1031 -77.3200 199° South 392 451 36,000  Level Washington Center
Sun 06:34:30 PM 33.9981 -77.3606 198° South 392 451 36,000  Level Washington Center
Sun 06:35:04 PM 33.9353 -77.3886 200° South 392 451 36,000  Level Jacksonville Center
Sun 06:36:04 PM 33.8328 -77.4300 199° South 392 451 36,000  Level Jacksonville Center
Sun 06:37:04 PM 33.7303 -77.4714 199° South 392 451 36,000  Level Jacksonville Center
Sun 06:38:04 PM 33.6278 -77.5150 200° South 392 451 36,000  Level Jacksonville Center
Sun 06:39:04 PM 33.5275 -77.5561 199° South 392 451 36,000  Level Jacksonville Center
Sun 06:40:04 PM 33.4247 -77.5944 197° South 392 451 36,000  Level Jacksonville Center
Sun 06:41:04 PM 33.3119 -77.6411 199° South 392 451 36,000  Level Jacksonville Center
Sun 06:42:04 PM 33.2072 -77.6844 199° South 397 457 36,000  Level Jacksonville Center
Sun 06:43:04 PM 33.1047 -77.7253 198° South 397 457 36,000  Level Jacksonville Center
Sun 06:44:04 PM 32.9958 -77.7711 199° South 397 457 36,000  Level Jacksonville Center
Sun 06:45:04 PM 32.8911 -77.8092 197° South 397 457 36,000  Level Jacksonville Center
Sun 06:46:04 PM 32.7822 -77.8547 199° South 397 457 36,000  Level Jacksonville Center
Sun 06:47:04 PM 32.6733 -77.8953 197° South 403 464 36,000  Level Jacksonville Center
Sun 06:48:04 PM 32.5644 -77.9433 200° South 409 471 36,000  Level Jacksonville Center
Sun 06:49:04 PM 32.4575 -77.9836 198° South 409 471 36,000  Level Jacksonville Center
Sun 06:50:04 PM 32.3464 -78.0264 198° South 414 476 36,000  Level Jacksonville Center
Sun 06:51:04 PM 32.2375 -78.0692 198° South 419 482 36,000  Level Jacksonville Center
Sun 06:52:04 PM 32.1306 -78.1139 200° South 419 482 36,000  Level Jacksonville Center
Sun 06:53:04 PM 32.0236 -78.1514 197° South 419 482 36,000  Level Jacksonville Center
Sun 06:54:04 PM 31.9106 -78.1989 200° South 419 482 36,000  Level Jacksonville Center
Sun 06:55:04 PM 31.8014 -78.2411 198° South 419 482 36,000  Level Jacksonville Center
Sun 06:56:04 PM 31.6925 -78.2906 201° Southwest 424 488 36,000  Level Jacksonville Center
Sun 06:57:04 PM 31.5836 -78.3325 198° South 418 481 36,000  Level Jacksonville Center
Sun 06:58:04 PM 31.4744 -78.3742 198° South 412 474 36,000  Level Jacksonville Center
Sun 06:59:04 PM 31.3692 -78.4111 197° South 412 474 36,000  Level Jacksonville Center
Sun 07:00:04 PM 31.2642 -78.4550 200° South 417 480 36,000  Level Jacksonville Center
Sun 07:01:04 PM 31.1572 -78.4964 198° South 412 474 36,000  Level Jacksonville Center
Sun 07:02:04 PM 31.0478 -78.5353 197° South 412 474 36,000  Level Jacksonville Center
Sun 07:03:04 PM 30.9386 -78.5767 198° South 412 474 36,000  Level Jacksonville Center
Sun 07:04:04 PM 30.8378 -78.6200 200° South 412 474 36,000  Level Jacksonville Center
Sun 07:05:04 PM 30.7286 -78.6589 197° South 412 474 36,000  Level Jacksonville Center
Sun 07:06:04 PM 30.6172 -78.7022 199° South 411 473 36,000  Level Jacksonville Center
Sun 07:06:58 PM 30.5328 -78.7311 196° South 405 466 36,000  Level Miami Center
Sun 07:07:58 PM 30.4197 -78.7725 198° South 405 466 36,000  Level Miami Center
Sun 07:08:58 PM 30.3128 -78.8114 197° South 410 472 36,000  Level Miami Center
Sun 07:09:58 PM 30.1997 -78.8503 197° South 410 472 36,000  Level Miami Center
Sun 07:10:58 PM 30.0950 -78.8914 199° South 412 474 36,000  Level Miami Center
Sun 07:11:58 PM 29.9797 -78.9275 195° South 412 474 36,000 -400 Level Miami Center
Sun 07:12:58 PM 29.8708 -78.9683 198° South 412 474 35,200 -900 Descending Miami Center
Sun 07:13:58 PM 29.7617 -79.0044 196° South 412 474 34,200 -1,000 Descending Miami Center
Sun 07:14:58 PM 29.6444 -79.0308 191° South 418 481 33,200 -1,000 Descending Miami Center
Sun 07:15:58 PM 29.5214 -79.0475 187° South 435 501 32,200 -950 Descending Miami Center
Sun 07:16:58 PM 29.4139 -79.1097 207° Southwest 440 506 31,300 -700 Descending Miami Center
Sun 07:17:58 PM 29.3189 -79.1814 213° Southwest 416 479 30,800 -450 Descending Miami Center
Sun 07:18:58 PM 29.2281 -79.2558 216° Southwest 416 479 30,400 -450 Descending Miami Center
Sun 07:19:58 PM 29.1392 -79.3344 218° Southwest 416 479 29,900 -500 Descending Miami Center
Sun 07:20:58 PM 29.0419 -79.4036 212° Southwest 416 479 29,400 -500 Descending Miami Center
Sun 07:21:58 PM 28.9447 -79.4750 213° Southwest 411 473 28,900 -500 Descending Miami Center
Sun 07:22:58 PM 28.8536 -79.5486 215° Southwest 411 473 28,400 -500 Descending Miami Center
Sun 07:23:58 PM 28.7581 -79.6244 215° Southwest 411 473 27,900 -500 Descending Miami Center
Sun 07:24:58 PM 28.6650 -79.7000 215° Southwest 417 480 27,400 -500 Descending Miami Center
Sun 07:25:58 PM 28.5717 -79.7711 214° Southwest 412 474 26,900 -500 Descending Miami Center
Sun 07:26:58 PM 28.4783 -79.8394 213° Southwest 407 468 26,400 -700 Descending Miami Center
Sun 07:27:58 PM 28.3792 -79.8958 207° Southwest 401 461 25,500 -1,350 Descending Miami Center
Sun 07:28:58 PM 28.2681 -79.9211 191° South 403 464 23,700 -1,700 Descending Miami Center
Sun 07:29:58 PM 28.1525 -79.9486 192° South 414 476 22,100 -1,600 Descending Miami Center
Sun 07:30:58 PM 28.0372 -79.9736 191° South 414 476 20,500 -1,600 Descending Miami Center
Sun 07:31:58 PM 27.9344 -79.9967 191° South 419 482 18,900 -1,550 Descending Miami Center
Sun 07:32:58 PM 27.8233 -80.0217 191° South 422 486 17,400 -1,650 Descending Miami Center
Sun 07:33:58 PM 27.7036 -80.0489 191° South 405 466 15,600 -1,650 Descending Miami Center
Sun 07:34:58 PM 27.5989 -80.0719 191° South 396 456 14,100 -1,450 Descending Miami Center
Sun 07:35:58 PM 27.4939 -80.0947 191° South 391 450 12,700 -1,350 Descending Miami Center
Sun 07:36:58 PM 27.4142 -80.1111 190° South 357 411 11,400 -1,000 Descending Miami Center
Sun 07:37:58 PM 27.3325 -80.1206 186° South 321 369 10,700 -650 Descending Miami Center
Sun 07:38:58 PM 27.2408 -80.1086 173° South 301 346 10,100 -1,350 Descending Miami Center
Sun 07:39:58 PM 27.1578 -80.0900 169° South 306 352 8,000 -2,100 Descending Miami Center
Sun 07:40:58 PM 27.0808 -80.0739 169° South 306 352 5,900 -1,450 Descending Miami Center
Sun 07:41:58 PM 27.0103 -80.0603 170° South 294 338 5,100 -400 Descending Miami Center
Sun 07:42:58 PM 26.9333 -80.0442 169° South 294 338 5,100 -50 Level Miami Center
Sun 07:43:58 PM 26.8478 -80.0347 174° South 294 338 5,000 -100 Descending Miami Center
Sun 07:44:58 PM 26.7664 -80.0350 180° South 294 338 4,900 -550 Descending Miami Center
Sun 07:45:58 PM 26.6869 -80.0375 182° South 294 338 3,900 -1,000 Descending Miami Center
Sun 07:47:00 PM 26.5825 -80.0613 180° South  Level Estimated
Sun 07:54:00 PM 26.3785 -80.1077 180° South  Level Estimated
Sun 07:55:00 PM 26.3785 -80.1077 180° South  Level Estimated
Sun 07:56:00 PM 26.3785 -80.1077 180° South  Level Estimated
Sun 07:57:00 PM 26.3785 -80.1077 180° South  Level Estimated
Sun 07:58:00 PM 26.3785 -80.1077 180° South  Level Estimated
Sun 07:59:00 PM 26.3785 -80.1077 180° South  Level Estimated
Sun 08:00:00 PM 26.3785 -80.1077 180° South  Level Estimated

Login

Don't have an account? Register now (free) for customized features, flight alerts, and more!